sensor_id;sensor_type;location;lat;lon;timestamp;pressure;altitude;pressure_sealevel;temperature
35582;BMP180;21687;48.900;9.188;2024-03-02T00:00:20;97274.00;;;5.20
35582;BMP180;21687;48.900;9.188;2024-03-02T00:02:49;97275.00;;;5.10
35582;BMP180;21687;48.900;9.188;2024-03-02T00:05:20;97276.00;;;5.10
35582;BMP180;21687;48.900;9.188;2024-03-02T00:07:55;97272.00;;;5.10
35582;BMP180;21687;48.900;9.188;2024-03-02T00:10:37;97273.00;;;5.10
35582;BMP180;21687;48.900;9.188;2024-03-02T00:13:06;97273.00;;;5.20
35582;BMP180;21687;48.900;9.188;2024-03-02T00:15:42;97264.00;;;5.20
35582;BMP180;21687;48.900;9.188;2024-03-02T00:18:20;97267.00;;;5.20
35582;BMP180;21687;48.900;9.188;2024-03-02T00:20:47;97269.00;;;5.10
35582;BMP180;21687;48.900;9.188;2024-03-02T00:23:18;97273.00;;;5.10
35582;BMP180;21687;48.900;9.188;2024-03-02T00:25:50;97270.00;;;5.00
35582;BMP180;21687;48.900;9.188;2024-03-02T00:28:34;97268.00;;;5.00
35582;BMP180;21687;48.900;9.188;2024-03-02T00:31:05;97271.00;;;5.00
35582;BMP180;21687;48.900;9.188;2024-03-02T00:33:36;97278.00;;;4.90
35582;BMP180;21687;48.900;9.188;2024-03-02T00:36:04;97284.00;;;4.90
35582;BMP180;21687;48.900;9.188;2024-03-02T00:38:31;97275.00;;;4.80
35582;BMP180;21687;48.900;9.188;2024-03-02T00:41:05;97283.00;;;4.80
35582;BMP180;21687;48.900;9.188;2024-03-02T00:46:15;97269.00;;;4.80
35582;BMP180;21687;48.900;9.188;2024-03-02T00:48:48;97272.00;;;4.70
35582;BMP180;21687;48.900;9.188;2024-03-02T00:51:17;97265.00;;;4.80
35582;BMP180;21687;48.900;9.188;2024-03-02T00:53:43;97268.00;;;4.50
35582;BMP180;21687;48.900;9.188;2024-03-02T00:56:11;97270.00;;;4.50
35582;BMP180;21687;48.900;9.188;2024-03-02T00:58:38;97278.00;;;4.50
35582;BMP180;21687;48.900;9.188;2024-03-02T01:01:04;97274.00;;;4.40
35582;BMP180;21687;48.900;9.188;2024-03-02T01:03:32;97273.00;;;4.40
35582;BMP180;21687;48.900;9.188;2024-03-02T01:05:59;97274.00;;;4.40
35582;BMP180;21687;48.900;9.188;2024-03-02T01:08:25;97269.00;;;4.50
35582;BMP180;21687;48.900;9.188;2024-03-02T01:10:52;97270.00;;;4.40
35582;BMP180;21687;48.900;9.188;2024-03-02T01:13:19;97274.00;;;4.40
35582;BMP180;21687;48.900;9.188;2024-03-02T01:15:45;97287.00;;;4.30
35582;BMP180;21687;48.900;9.188;2024-03-02T01:18:11;97275.00;;;4.30
35582;BMP180;21687;48.900;9.188;2024-03-02T01:20:38;97271.00;;;4.40
35582;BMP180;21687;48.900;9.188;2024-03-02T01:23:04;97267.00;;;4.30
35582;BMP180;21687;48.900;9.188;2024-03-02T01:25:30;97263.00;;;4.30
35582;BMP180;21687;48.900;9.188;2024-03-02T01:27:57;97270.00;;;4.20
35582;BMP180;21687;48.900;9.188;2024-03-02T01:30:23;97260.00;;;4.10
35582;BMP180;21687;48.900;9.188;2024-03-02T01:32:49;97274.00;;;4.20
35582;BMP180;21687;48.900;9.188;2024-03-02T01:35:16;97272.00;;;4.10
35582;BMP180;21687;48.900;9.188;2024-03-02T01:37:42;97270.00;;;4.10
35582;BMP180;21687;48.900;9.188;2024-03-02T01:40:09;97270.00;;;4.10
35582;BMP180;21687;48.900;9.188;2024-03-02T01:42:37;97260.00;;;4.20
35582;BMP180;21687;48.900;9.188;2024-03-02T01:45:08;97234.00;;;4.30
35582;BMP180;21687;48.900;9.188;2024-03-02T01:47:35;97252.00;;;4.40
35582;BMP180;21687;48.900;9.188;2024-03-02T01:50:02;97254.00;;;4.50
35582;BMP180;21687;48.900;9.188;2024-03-02T01:52:28;97249.00;;;4.50
35582;BMP180;21687;48.900;9.188;2024-03-02T01:54:55;97260.00;;;4.40
35582;BMP180;21687;48.900;9.188;2024-03-02T01:57:22;97249.00;;;4.50
35582;BMP180;21687;48.900;9.188;2024-03-02T01:59:48;97252.00;;;4.40
35582;BMP180;21687;48.900;9.188;2024-03-02T02:02:17;97244.00;;;4.40
35582;BMP180;21687;48.900;9.188;2024-03-02T02:04:43;97241.00;;;4.30
35582;BMP180;21687;48.900;9.188;2024-03-02T02:07:10;97241.00;;;4.40
35582;BMP180;21687;48.900;9.188;2024-03-02T02:09:37;97243.00;;;4.40
35582;BMP180;21687;48.900;9.188;2024-03-02T02:12:03;97241.00;;;4.30
35582;BMP180;21687;48.900;9.188;2024-03-02T02:14:32;97249.00;;;4.10
35582;BMP180;21687;48.900;9.188;2024-03-02T02:16:59;97215.00;;;4.00
35582;BMP180;21687;48.900;9.188;2024-03-02T02:19:25;97238.00;;;4.10
35582;BMP180;21687;48.900;9.188;2024-03-02T02:21:52;97237.00;;;4.20
35582;BMP180;21687;48.900;9.188;2024-03-02T02:24:18;97222.00;;;4.30
35582;BMP180;21687;48.900;9.188;2024-03-02T02:26:45;97232.00;;;4.40
35582;BMP180;21687;48.900;9.188;2024-03-02T02:29:11;97226.00;;;4.30
35582;BMP180;21687;48.900;9.188;2024-03-02T02:31:41;97228.00;;;4.10
35582;BMP180;21687;48.900;9.188;2024-03-02T02:34:08;97234.00;;;4.00
35582;BMP180;21687;48.900;9.188;2024-03-02T02:36:37;97231.00;;;4.00
35582;BMP180;21687;48.900;9.188;2024-03-02T02:39:05;97226.00;;;3.80
35582;BMP180;21687;48.900;9.188;2024-03-02T02:41:33;97199.00;;;3.80
35582;BMP180;21687;48.900;9.188;2024-03-02T02:43:59;97221.00;;;3.80
35582;BMP180;21687;48.900;9.188;2024-03-02T02:46:26;97210.00;;;3.90
35582;BMP180;21687;48.900;9.188;2024-03-02T02:48:52;97213.00;;;3.90
35582;BMP180;21687;48.900;9.188;2024-03-02T02:51:19;97204.00;;;3.70
35582;BMP180;21687;48.900;9.188;2024-03-02T02:53:45;97210.00;;;3.60
35582;BMP180;21687;48.900;9.188;2024-03-02T02:56:12;97209.00;;;3.60
35582;BMP180;21687;48.900;9.188;2024-03-02T02:58:40;97214.00;;;3.60
35582;BMP180;21687;48.900;9.188;2024-03-02T03:01:06;97208.00;;;3.60
35582;BMP180;21687;48.900;9.188;2024-03-02T03:03:33;97206.00;;;3.60
35582;BMP180;21687;48.900;9.188;2024-03-02T03:05:59;97217.00;;;3.50
35582;BMP180;21687;48.900;9.188;2024-03-02T03:08:26;97214.00;;;3.40
35582;BMP180;21687;48.900;9.188;2024-03-02T03:10:52;97212.00;;;3.30
35582;BMP180;21687;48.900;9.188;2024-03-02T03:13:18;97209.00;;;3.20
35582;BMP180;21687;48.900;9.188;2024-03-02T03:15:45;97215.00;;;3.10
35582;BMP180;21687;48.900;9.188;2024-03-02T03:18:11;97207.00;;;3.00
35582;BMP180;21687;48.900;9.188;2024-03-02T03:20:37;97218.00;;;3.10
35582;BMP180;21687;48.900;9.188;2024-03-02T03:23:04;97224.00;;;3.10
35582;BMP180;21687;48.900;9.188;2024-03-02T03:25:30;97229.00;;;3.00
35582;BMP180;21687;48.900;9.188;2024-03-02T03:27:57;97225.00;;;3.00
35582;BMP180;21687;48.900;9.188;2024-03-02T03:30:23;97223.00;;;3.00
35582;BMP180;21687;48.900;9.188;2024-03-02T03:32:50;97219.00;;;3.00
35582;BMP180;21687;48.900;9.188;2024-03-02T03:35:16;97220.00;;;3.00
35582;BMP180;21687;48.900;9.188;2024-03-02T03:37:42;97224.00;;;3.00
35582;BMP180;21687;48.900;9.188;2024-03-02T03:40:09;97216.00;;;3.10
35582;BMP180;21687;48.900;9.188;2024-03-02T03:42:40;97207.00;;;3.20
35582;BMP180;21687;48.900;9.188;2024-03-02T03:45:07;97213.00;;;3.10
35582;BMP180;21687;48.900;9.188;2024-03-02T03:47:33;97206.00;;;3.40
35582;BMP180;21687;48.900;9.188;2024-03-02T03:50:00;97210.00;;;3.40
35582;BMP180;21687;48.900;9.188;2024-03-02T03:52:26;97211.00;;;3.40
35582;BMP180;21687;48.900;9.188;2024-03-02T03:54:52;97217.00;;;3.40
35582;BMP180;21687;48.900;9.188;2024-03-02T03:57:18;97210.00;;;3.50
35582;BMP180;21687;48.900;9.188;2024-03-02T03:59:45;97207.00;;;3.50
35582;BMP180;21687;48.900;9.188;2024-03-02T04:02:12;97210.00;;;3.50
35582;BMP180;21687;48.900;9.188;2024-03-02T04:04:39;97211.00;;;3.50
35582;BMP180;21687;48.900;9.188;2024-03-02T04:07:05;97215.00;;;3.40
35582;BMP180;21687;48.900;9.188;2024-03-02T04:09:31;97202.00;;;3.40
35582;BMP180;21687;48.900;9.188;2024-03-02T04:11:58;97218.00;;;3.30
35582;BMP180;21687;48.900;9.188;2024-03-02T04:14:24;97218.00;;;3.20
35582;BMP180;21687;48.900;9.188;2024-03-02T04:16:50;97211.00;;;3.20
35582;BMP180;21687;48.900;9.188;2024-03-02T04:19:16;97211.00;;;3.10
35582;BMP180;21687;48.900;9.188;2024-03-02T04:21:43;97213.00;;;3.20
35582;BMP180;21687;48.900;9.188;2024-03-02T04:24:09;97197.00;;;3.00
35582;BMP180;21687;48.900;9.188;2024-03-02T04:26:35;97207.00;;;3.00
35582;BMP180;21687;48.900;9.188;2024-03-02T04:29:02;97209.00;;;3.00
35582;BMP180;21687;48.900;9.188;2024-03-02T04:31:28;97210.00;;;3.00
35582;BMP180;21687;48.900;9.188;2024-03-02T04:33:54;97211.00;;;3.10
35582;BMP180;21687;48.900;9.188;2024-03-02T04:36:21;97206.00;;;3.00
35582;BMP180;21687;48.900;9.188;2024-03-02T04:38:47;97203.00;;;3.00
35582;BMP180;21687;48.900;9.188;2024-03-02T04:41:14;97222.00;;;3.00
35582;BMP180;21687;48.900;9.188;2024-03-02T04:43:40;97222.00;;;3.00
35582;BMP180;21687;48.900;9.188;2024-03-02T04:46:07;97210.00;;;3.00
35582;BMP180;21687;48.900;9.188;2024-03-02T04:48:34;97226.00;;;2.90
35582;BMP180;21687;48.900;9.188;2024-03-02T04:51:00;97215.00;;;3.10
35582;BMP180;21687;48.900;9.188;2024-03-02T04:53:26;97215.00;;;3.10
35582;BMP180;21687;48.900;9.188;2024-03-02T04:55:53;97217.00;;;3.10
35582;BMP180;21687;48.900;9.188;2024-03-02T04:58:52;97217.00;;;3.00
35582;BMP180;21687;48.900;9.188;2024-03-02T05:01:18;97216.00;;;3.00
35582;BMP180;21687;48.900;9.188;2024-03-02T05:03:44;97220.00;;;3.10
35582;BMP180;21687;48.900;9.188;2024-03-02T05:06:11;97220.00;;;3.00
35582;BMP180;21687;48.900;9.188;2024-03-02T05:08:37;97223.00;;;3.00
35582;BMP180;21687;48.900;9.188;2024-03-02T05:11:03;97223.00;;;3.00
35582;BMP180;21687;48.900;9.188;2024-03-02T05:13:49;97219.00;;;3.10
35582;BMP180;21687;48.900;9.188;2024-03-02T05:16:15;97215.00;;;3.10
35582;BMP180;21687;48.900;9.188;2024-03-02T05:18:41;97214.00;;;3.00
35582;BMP180;21687;48.900;9.188;2024-03-02T05:21:08;97225.00;;;2.90
35582;BMP180;21687;48.900;9.188;2024-03-02T05:23:34;97206.00;;;2.80
35582;BMP180;21687;48.900;9.188;2024-03-02T05:26:00;97219.00;;;2.80
35582;BMP180;21687;48.900;9.188;2024-03-02T05:28:26;97222.00;;;2.80
35582;BMP180;21687;48.900;9.188;2024-03-02T05:30:53;97218.00;;;2.70
35582;BMP180;21687;48.900;9.188;2024-03-02T05:33:19;97218.00;;;2.70
35582;BMP180;21687;48.900;9.188;2024-03-02T05:35:48;97215.00;;;2.60
35582;BMP180;21687;48.900;9.188;2024-03-02T05:38:16;97221.00;;;2.60
35582;BMP180;21687;48.900;9.188;2024-03-02T05:40:42;97227.00;;;2.60
35582;BMP180;21687;48.900;9.188;2024-03-02T05:43:09;97234.00;;;2.50
35582;BMP180;21687;48.900;9.188;2024-03-02T05:45:35;97233.00;;;2.40
35582;BMP180;21687;48.900;9.188;2024-03-02T05:48:02;97235.00;;;2.40
35582;BMP180;21687;48.900;9.188;2024-03-02T05:50:29;97233.00;;;2.40
35582;BMP180;21687;48.900;9.188;2024-03-02T05:52:55;97242.00;;;2.40
35582;BMP180;21687;48.900;9.188;2024-03-02T05:55:22;97235.00;;;2.40
35582;BMP180;21687;48.900;9.188;2024-03-02T05:57:48;97232.00;;;2.40
35582;BMP180;21687;48.900;9.188;2024-03-02T06:00:33;97238.00;;;2.40
35582;BMP180;21687;48.900;9.188;2024-03-02T06:02:59;97243.00;;;2.50
35582;BMP180;21687;48.900;9.188;2024-03-02T06:05:26;97245.00;;;2.50
35582;BMP180;21687;48.900;9.188;2024-03-02T06:07:52;97253.00;;;2.70
35582;BMP180;21687;48.900;9.188;2024-03-02T06:10:19;97254.00;;;2.70
35582;BMP180;21687;48.900;9.188;2024-03-02T06:12:45;97254.00;;;2.70
35582;BMP180;21687;48.900;9.188;2024-03-02T06:15:11;97261.00;;;2.80
35582;BMP180;21687;48.900;9.188;2024-03-02T06:17:38;97263.00;;;2.80
35582;BMP180;21687;48.900;9.188;2024-03-02T06:20:05;97246.00;;;2.80
35582;BMP180;21687;48.900;9.188;2024-03-02T06:22:37;97247.00;;;2.80
35582;BMP180;21687;48.900;9.188;2024-03-02T06:25:04;97243.00;;;2.90
35582;BMP180;21687;48.900;9.188;2024-03-02T06:27:32;97232.00;;;3.00
35582;BMP180;21687;48.900;9.188;2024-03-02T06:29:59;97240.00;;;3.10
35582;BMP180;21687;48.900;9.188;2024-03-02T06:32:25;97242.00;;;3.10
35582;BMP180;21687;48.900;9.188;2024-03-02T06:34:52;97239.00;;;3.10
35582;BMP180;21687;48.900;9.188;2024-03-02T06:37:18;97240.00;;;3.20
35582;BMP180;21687;48.900;9.188;2024-03-02T06:39:44;97238.00;;;3.40
35582;BMP180;21687;48.900;9.188;2024-03-02T06:42:10;97252.00;;;3.50
35582;BMP180;21687;48.900;9.188;2024-03-02T06:44:37;97244.00;;;3.60
35582;BMP180;21687;48.900;9.188;2024-03-02T06:47:03;97253.00;;;3.80
35582;BMP180;21687;48.900;9.188;2024-03-02T06:49:30;97257.00;;;3.90
35582;BMP180;21687;48.900;9.188;2024-03-02T06:51:56;97261.00;;;4.00
35582;BMP180;21687;48.900;9.188;2024-03-02T06:54:22;97276.00;;;4.00
35582;BMP180;21687;48.900;9.188;2024-03-02T06:56:49;97274.00;;;4.10
35582;BMP180;21687;48.900;9.188;2024-03-02T06:59:15;97281.00;;;4.30
35582;BMP180;21687;48.900;9.188;2024-03-02T07:01:41;97273.00;;;4.40
35582;BMP180;21687;48.900;9.188;2024-03-02T07:04:09;97275.00;;;4.50
35582;BMP180;21687;48.900;9.188;2024-03-02T07:06:35;97271.00;;;4.60
35582;BMP180;21687;48.900;9.188;2024-03-02T07:09:02;97264.00;;;4.60
35582;BMP180;21687;48.900;9.188;2024-03-02T07:11:28;97270.00;;;4.70
35582;BMP180;21687;48.900;9.188;2024-03-02T07:13:54;97266.00;;;4.90
35582;BMP180;21687;48.900;9.188;2024-03-02T07:16:21;97270.00;;;4.90
35582;BMP180;21687;48.900;9.188;2024-03-02T07:18:55;97268.00;;;5.00
35582;BMP180;21687;48.900;9.188;2024-03-02T07:21:23;97278.00;;;5.10
35582;BMP180;21687;48.900;9.188;2024-03-02T07:23:49;97284.00;;;5.20
35582;BMP180;21687;48.900;9.188;2024-03-02T07:26:16;97278.00;;;5.30
35582;BMP180;21687;48.900;9.188;2024-03-02T07:28:47;97275.00;;;5.40
35582;BMP180;21687;48.900;9.188;2024-03-02T07:31:14;97277.00;;;5.40
35582;BMP180;21687;48.900;9.188;2024-03-02T07:33:43;97288.00;;;5.50
35582;BMP180;21687;48.900;9.188;2024-03-02T07:36:09;97274.00;;;5.60
35582;BMP180;21687;48.900;9.188;2024-03-02T07:38:35;97266.00;;;5.60
35582;BMP180;21687;48.900;9.188;2024-03-02T07:41:02;97274.00;;;5.60
35582;BMP180;21687;48.900;9.188;2024-03-02T07:43:30;97278.00;;;5.70
35582;BMP180;21687;48.900;9.188;2024-03-02T07:45:59;97254.00;;;5.80
35582;BMP180;21687;48.900;9.188;2024-03-02T07:48:26;97275.00;;;5.90
35582;BMP180;21687;48.900;9.188;2024-03-02T07:50:53;97278.00;;;5.90
35582;BMP180;21687;48.900;9.188;2024-03-02T07:53:19;97273.00;;;6.00
35582;BMP180;21687;48.900;9.188;2024-03-02T07:55:45;97279.00;;;6.00
35582;BMP180;21687;48.900;9.188;2024-03-02T07:58:12;97285.00;;;6.10
35582;BMP180;21687;48.900;9.188;2024-03-02T08:00:42;97295.00;;;6.10
35582;BMP180;21687;48.900;9.188;2024-03-02T08:03:08;97282.00;;;6.20
35582;BMP180;21687;48.900;9.188;2024-03-02T08:05:39;97280.00;;;6.20
35582;BMP180;21687;48.900;9.188;2024-03-02T08:08:05;97276.00;;;6.20
35582;BMP180;21687;48.900;9.188;2024-03-02T08:10:32;97280.00;;;6.20
35582;BMP180;21687;48.900;9.188;2024-03-02T08:12:59;97280.00;;;6.10
35582;BMP180;21687;48.900;9.188;2024-03-02T08:15:26;97278.00;;;6.20
35582;BMP180;21687;48.900;9.188;2024-03-02T08:17:53;97278.00;;;6.20
35582;BMP180;21687;48.900;9.188;2024-03-02T08:20:19;97273.00;;;6.20
35582;BMP180;21687;48.900;9.188;2024-03-02T08:22:46;97271.00;;;6.30
35582;BMP180;21687;48.900;9.188;2024-03-02T08:25:13;97274.00;;;6.30
35582;BMP180;21687;48.900;9.188;2024-03-02T08:27:40;97265.00;;;6.30
35582;BMP180;21687;48.900;9.188;2024-03-02T08:30:07;97274.00;;;6.30
35582;BMP180;21687;48.900;9.188;2024-03-02T08:32:34;97277.00;;;6.30
35582;BMP180;21687;48.900;9.188;2024-03-02T08:35:00;97272.00;;;6.30
35582;BMP180;21687;48.900;9.188;2024-03-02T08:37:26;97265.00;;;6.40
35582;BMP180;21687;48.900;9.188;2024-03-02T08:39:53;97264.00;;;6.50
35582;BMP180;21687;48.900;9.188;2024-03-02T08:42:19;97264.00;;;6.50
35582;BMP180;21687;48.900;9.188;2024-03-02T08:44:46;97273.00;;;6.60
35582;BMP180;21687;48.900;9.188;2024-03-02T08:47:12;97269.00;;;6.70
35582;BMP180;21687;48.900;9.188;2024-03-02T08:49:38;97272.00;;;6.70
35582;BMP180;21687;48.900;9.188;2024-03-02T08:52:05;97259.00;;;6.80
35582;BMP180;21687;48.900;9.188;2024-03-02T08:54:31;97263.00;;;7.00
35582;BMP180;21687;48.900;9.188;2024-03-02T08:56:59;97264.00;;;7.00
35582;BMP180;21687;48.900;9.188;2024-03-02T08:59:26;97260.00;;;7.10
35582;BMP180;21687;48.900;9.188;2024-03-02T09:01:53;97254.00;;;7.30
35582;BMP180;21687;48.900;9.188;2024-03-02T09:04:20;97259.00;;;7.40
35582;BMP180;21687;48.900;9.188;2024-03-02T09:06:47;97265.00;;;7.50
35582;BMP180;21687;48.900;9.188;2024-03-02T09:09:13;97263.00;;;7.60
35582;BMP180;21687;48.900;9.188;2024-03-02T09:11:39;97269.00;;;7.60
35582;BMP180;21687;48.900;9.188;2024-03-02T09:14:06;97265.00;;;7.70
35582;BMP180;21687;48.900;9.188;2024-03-02T09:16:32;97258.00;;;7.80
35582;BMP180;21687;48.900;9.188;2024-03-02T09:18:58;97265.00;;;7.90
35582;BMP180;21687;48.900;9.188;2024-03-02T09:21:26;97263.00;;;8.00
35582;BMP180;21687;48.900;9.188;2024-03-02T09:23:52;97271.00;;;8.10
35582;BMP180;21687;48.900;9.188;2024-03-02T09:26:18;97281.00;;;8.10
35582;BMP180;21687;48.900;9.188;2024-03-02T09:28:47;97266.00;;;8.20
35582;BMP180;21687;48.900;9.188;2024-03-02T09:31:13;97263.00;;;8.30
35582;BMP180;21687;48.900;9.188;2024-03-02T09:33:39;97258.00;;;8.30
35582;BMP180;21687;48.900;9.188;2024-03-02T09:36:16;97260.00;;;8.40
35582;BMP180;21687;48.900;9.188;2024-03-02T09:38:42;97258.00;;;8.50
35582;BMP180;21687;48.900;9.188;2024-03-02T09:41:08;97261.00;;;8.60
35582;BMP180;21687;48.900;9.188;2024-03-02T09:43:35;97259.00;;;8.70
35582;BMP180;21687;48.900;9.188;2024-03-02T09:46:01;97259.00;;;8.80
35582;BMP180;21687;48.900;9.188;2024-03-02T09:48:27;97256.00;;;8.90
35582;BMP180;21687;48.900;9.188;2024-03-02T09:50:54;97246.00;;;8.90
35582;BMP180;21687;48.900;9.188;2024-03-02T09:53:21;97252.00;;;9.10
35582;BMP180;21687;48.900;9.188;2024-03-02T09:55:48;97241.00;;;9.20
35582;BMP180;21687;48.900;9.188;2024-03-02T09:58:14;97253.00;;;9.30
35582;BMP180;21687;48.900;9.188;2024-03-02T10:00:41;97252.00;;;9.30
35582;BMP180;21687;48.900;9.188;2024-03-02T10:03:12;97252.00;;;9.40
35582;BMP180;21687;48.900;9.188;2024-03-02T10:05:39;97241.00;;;9.50
35582;BMP180;21687;48.900;9.188;2024-03-02T10:08:05;97234.00;;;9.50
35582;BMP180;21687;48.900;9.188;2024-03-02T10:10:40;97236.00;;;9.60
35582;BMP180;21687;48.900;9.188;2024-03-02T10:13:12;97243.00;;;9.60
35582;BMP180;21687;48.900;9.188;2024-03-02T10:15:40;97238.00;;;9.80
35582;BMP180;21687;48.900;9.188;2024-03-02T10:18:10;97236.00;;;9.90
35582;BMP180;21687;48.900;9.188;2024-03-02T10:20:38;97236.00;;;9.90
35582;BMP180;21687;48.900;9.188;2024-03-02T10:23:15;97232.00;;;10.00
35582;BMP180;21687;48.900;9.188;2024-03-02T10:25:43;97234.00;;;10.00
35582;BMP180;21687;48.900;9.188;2024-03-02T10:28:09;97220.00;;;10.00
35582;BMP180;21687;48.900;9.188;2024-03-02T10:30:36;97224.00;;;10.10
35582;BMP180;21687;48.900;9.188;2024-03-02T10:33:03;97228.00;;;10.30
35582;BMP180;21687;48.900;9.188;2024-03-02T10:35:32;97229.00;;;10.40
35582;BMP180;21687;48.900;9.188;2024-03-02T10:37:59;97218.00;;;10.50
35582;BMP180;21687;48.900;9.188;2024-03-02T10:40:29;97223.00;;;10.60
35582;BMP180;21687;48.900;9.188;2024-03-02T10:42:56;97218.00;;;10.70
35582;BMP180;21687;48.900;9.188;2024-03-02T10:45:23;97214.00;;;10.80
35582;BMP180;21687;48.900;9.188;2024-03-02T10:47:50;97217.00;;;10.90
35582;BMP180;21687;48.900;9.188;2024-03-02T10:50:17;97213.00;;;11.00
35582;BMP180;21687;48.900;9.188;2024-03-02T10:52:43;97211.00;;;11.20
35582;BMP180;21687;48.900;9.188;2024-03-02T10:55:10;97200.00;;;11.20
35582;BMP180;21687;48.900;9.188;2024-03-02T10:58:00;97200.00;;;11.30
35582;BMP180;21687;48.900;9.188;2024-03-02T11:00:33;97200.00;;;11.30
35582;BMP180;21687;48.900;9.188;2024-03-02T11:03:05;97194.00;;;11.30
35582;BMP180;21687;48.900;9.188;2024-03-02T11:05:38;97197.00;;;11.20
35582;BMP180;21687;48.900;9.188;2024-03-02T11:08:08;97191.00;;;11.30
35582;BMP180;21687;48.900;9.188;2024-03-02T11:10:52;97192.00;;;11.40
35582;BMP180;21687;48.900;9.188;2024-03-02T11:13:30;97194.00;;;11.50
35582;BMP180;21687;48.900;9.188;2024-03-02T11:16:09;97186.00;;;11.60
35582;BMP180;21687;48.900;9.188;2024-03-02T11:18:39;97181.00;;;11.70
35582;BMP180;21687;48.900;9.188;2024-03-02T11:21:07;97182.00;;;11.80
35582;BMP180;21687;48.900;9.188;2024-03-02T11:23:34;97187.00;;;11.80
35582;BMP180;21687;48.900;9.188;2024-03-02T11:26:20;97183.00;;;11.90
35582;BMP180;21687;48.900;9.188;2024-03-02T11:28:47;97176.00;;;11.90
35582;BMP180;21687;48.900;9.188;2024-03-02T11:31:13;97172.00;;;12.00
35582;BMP180;21687;48.900;9.188;2024-03-02T11:33:39;97157.00;;;12.10
35582;BMP180;21687;48.900;9.188;2024-03-02T11:36:09;97157.00;;;12.20
35582;BMP180;21687;48.900;9.188;2024-03-02T11:38:36;97147.00;;;12.20
35582;BMP180;21687;48.900;9.188;2024-03-02T11:41:07;97149.00;;;12.30
35582;BMP180;21687;48.900;9.188;2024-03-02T11:43:38;97143.00;;;12.30
35582;BMP180;21687;48.900;9.188;2024-03-02T11:46:06;97145.00;;;12.30
35582;BMP180;21687;48.900;9.188;2024-03-02T11:48:34;97142.00;;;12.40
35582;BMP180;21687;48.900;9.188;2024-03-02T11:51:01;97143.00;;;12.50
35582;BMP180;21687;48.900;9.188;2024-03-02T11:53:28;97132.00;;;12.50
35582;BMP180;21687;48.900;9.188;2024-03-02T11:56:02;97127.00;;;12.60
35582;BMP180;21687;48.900;9.188;2024-03-02T11:58:28;97123.00;;;12.70
35582;BMP180;21687;48.900;9.188;2024-03-02T12:00:55;97114.00;;;12.70
35582;BMP180;21687;48.900;9.188;2024-03-02T12:03:24;97116.00;;;12.80
35582;BMP180;21687;48.900;9.188;2024-03-02T12:05:54;97113.00;;;12.70
35582;BMP180;21687;48.900;9.188;2024-03-02T12:08:21;97109.00;;;12.80
35582;BMP180;21687;48.900;9.188;2024-03-02T12:10:59;97101.00;;;12.90
35582;BMP180;21687;48.900;9.188;2024-03-02T12:13:27;97109.00;;;12.90
35582;BMP180;21687;48.900;9.188;2024-03-02T12:15:54;97105.00;;;12.90
35582;BMP180;21687;48.900;9.188;2024-03-02T12:18:22;97100.00;;;13.00
35582;BMP180;21687;48.900;9.188;2024-03-02T12:20:49;97096.00;;;13.10
35582;BMP180;21687;48.900;9.188;2024-03-02T12:23:22;97099.00;;;13.20
35582;BMP180;21687;48.900;9.188;2024-03-02T12:25:49;97093.00;;;13.30
35582;BMP180;21687;48.900;9.188;2024-03-02T12:28:16;97084.00;;;13.40
35582;BMP180;21687;48.900;9.188;2024-03-02T12:30:42;97091.00;;;13.50
35582;BMP180;21687;48.900;9.188;2024-03-02T12:33:10;97087.00;;;13.50
35582;BMP180;21687;48.900;9.188;2024-03-02T12:35:37;97081.00;;;13.70
35582;BMP180;21687;48.900;9.188;2024-03-02T12:38:03;97072.00;;;13.70
35582;BMP180;21687;48.900;9.188;2024-03-02T12:40:31;97075.00;;;13.90
35582;BMP180;21687;48.900;9.188;2024-03-02T12:42:58;97072.00;;;13.80
35582;BMP180;21687;48.900;9.188;2024-03-02T12:45:24;97071.00;;;13.90
35582;BMP180;21687;48.900;9.188;2024-03-02T12:47:51;97070.00;;;13.90
35582;BMP180;21687;48.900;9.188;2024-03-02T12:50:18;97061.00;;;14.00
35582;BMP180;21687;48.900;9.188;2024-03-02T12:52:52;97060.00;;;14.00
35582;BMP180;21687;48.900;9.188;2024-03-02T12:55:19;97057.00;;;14.00
35582;BMP180;21687;48.900;9.188;2024-03-02T12:57:45;97066.00;;;13.90
35582;BMP180;21687;48.900;9.188;2024-03-02T13:00:12;97058.00;;;14.00
35582;BMP180;21687;48.900;9.188;2024-03-02T13:02:42;97063.00;;;14.00
35582;BMP180;21687;48.900;9.188;2024-03-02T13:05:09;97060.00;;;13.90
35582;BMP180;21687;48.900;9.188;2024-03-02T13:07:38;97060.00;;;14.00
35582;BMP180;21687;48.900;9.188;2024-03-02T13:10:06;97058.00;;;14.10
35582;BMP180;21687;48.900;9.188;2024-03-02T13:12:34;97054.00;;;14.10
35582;BMP180;21687;48.900;9.188;2024-03-02T13:15:01;97050.00;;;14.10
35582;BMP180;21687;48.900;9.188;2024-03-02T13:17:28;97055.00;;;14.10
35582;BMP180;21687;48.900;9.188;2024-03-02T13:19:58;97040.00;;;14.20
35582;BMP180;21687;48.900;9.188;2024-03-02T13:22:25;97042.00;;;14.10
35582;BMP180;21687;48.900;9.188;2024-03-02T13:24:53;97037.00;;;14.10
35582;BMP180;21687;48.900;9.188;2024-03-02T13:27:23;97046.00;;;14.20
35582;BMP180;21687;48.900;9.188;2024-03-02T13:29:50;97041.00;;;14.20
35582;BMP180;21687;48.900;9.188;2024-03-02T13:32:17;97039.00;;;14.20
35582;BMP180;21687;48.900;9.188;2024-03-02T13:34:46;97034.00;;;14.20
35582;BMP180;21687;48.900;9.188;2024-03-02T13:37:13;97032.00;;;14.30
35582;BMP180;21687;48.900;9.188;2024-03-02T13:39:39;97035.00;;;14.20
35582;BMP180;21687;48.900;9.188;2024-03-02T13:42:11;97026.00;;;14.30
35582;BMP180;21687;48.900;9.188;2024-03-02T13:44:40;97030.00;;;14.30
35582;BMP180;21687;48.900;9.188;2024-03-02T13:47:09;97032.00;;;14.40
35582;BMP180;21687;48.900;9.188;2024-03-02T13:49:35;97026.00;;;14.30
35582;BMP180;21687;48.900;9.188;2024-03-02T13:52:03;97022.00;;;14.40
35582;BMP180;21687;48.900;9.188;2024-03-02T13:54:43;97028.00;;;14.40
35582;BMP180;21687;48.900;9.188;2024-03-02T13:57:10;97026.00;;;14.40
35582;BMP180;21687;48.900;9.188;2024-03-02T13:59:37;97020.00;;;14.40
35582;BMP180;21687;48.900;9.188;2024-03-02T14:02:05;97013.00;;;14.40
35582;BMP180;21687;48.900;9.188;2024-03-02T14:04:34;97015.00;;;14.40
35582;BMP180;21687;48.900;9.188;2024-03-02T14:07:02;97017.00;;;14.60
35582;BMP180;21687;48.900;9.188;2024-03-02T14:09:28;97015.00;;;14.60
35582;BMP180;21687;48.900;9.188;2024-03-02T14:11:55;97020.00;;;14.60
35582;BMP180;21687;48.900;9.188;2024-03-02T14:14:22;97014.00;;;14.50
35582;BMP180;21687;48.900;9.188;2024-03-02T14:16:49;97005.00;;;14.50
35582;BMP180;21687;48.900;9.188;2024-03-02T14:19:15;97007.00;;;14.50
35582;BMP180;21687;48.900;9.188;2024-03-02T14:21:42;97011.00;;;14.50
35582;BMP180;21687;48.900;9.188;2024-03-02T14:24:08;97006.00;;;14.50